Time;durP1;ratioP1;P1;durP2;ratioP2;P2;SDS_P1;SDS_P2;PMS_P1;PMS_P2;Temp;Humidity;BMP_temperature;BMP_pressure;BME280_temperature;BME280_humidity;BME280_pressure;Samples;Min_cycle;Max_cycle;Signal;HPM_P1;HPM_P2
2021/05/10 00:00:09;;;;;;;0.47;0.47;;;;;;;17.23;47.33;95847.66;29395;230;63009;-57
2021/05/10 00:00:40;;;;;;;0.40;0.40;;;;;;;17.24;46.74;95838.28;29395;198;63004;-57
2021/05/10 00:01:11;;;;;;;0.30;0.30;;;;;;;17.26;46.66;95840.66;29395;325;63009;-57
2021/05/10 00:01:42;;;;;;;0.40;0.40;;;;;;;17.24;46.79;95841.03;29394;235;64004;-57
2021/05/10 00:02:13;;;;;;;0.40;0.40;;;;;;;17.26;46.33;95835.97;29395;238;63009;-57
2021/05/10 00:02:45;;;;;;;0.40;0.40;;;;;;;17.29;46.40;95848.16;29395;243;63007;-57
2021/05/10 00:03:17;;;;;;;0.40;0.40;;;;;;;17.27;46.37;95848.53;29395;281;63009;-57
2021/05/10 00:03:49;;;;;;;0.40;0.40;;;;;;;17.27;46.15;95854.00;29395;227;63005;-57
2021/05/10 00:04:23;;;;;;;0.40;0.40;;;;;;;17.27;46.32;95850.47;29395;270;63009;-57
2021/05/10 00:04:54;;;;;;;0.50;0.50;;;;;;;17.25;46.14;95850.84;29394;265;64005;-57
2021/05/10 00:05:26;;;;;;;0.50;0.50;;;;;;;17.24;46.37;95852.00;29395;228;63009;-56
2021/05/10 00:05:57;;;;;;;0.50;0.50;;;;;;;17.24;46.29;95854.75;29395;197;63005;-57
2021/05/10 00:06:28;;;;;;;0.40;0.40;;;;;;;17.24;46.33;95859.44;29395;197;63009;-57
2021/05/10 00:07:02;;;;;;;0.40;0.40;;;;;;;17.23;46.37;95866.84;29395;219;63005;-57
2021/05/10 00:07:33;;;;;;;0.50;0.50;;;;;;;17.22;46.50;95857.03;29395;220;63009;-57
2021/05/10 00:08:06;;;;;;;0.50;0.50;;;;;;;17.21;46.69;95860.94;29395;284;63004;-57
2021/05/10 00:08:37;;;;;;;0.40;0.40;;;;;;;17.19;47.61;95867.94;29395;216;63009;-58
2021/05/10 00:09:08;;;;;;;0.40;0.40;;;;;;;17.16;47.50;95869.44;29395;203;63004;-58
2021/05/10 00:09:40;;;;;;;0.40;0.40;;;;;;;17.16;46.89;95868.66;29394;261;64009;-57
2021/05/10 00:10:11;;;;;;;0.50;0.50;;;;;;;17.16;46.79;95868.66;29395;209;63009;-57
2021/05/10 00:10:42;;;;;;;0.40;0.40;;;;;;;17.17;46.92;95873.78;29394;210;64009;-57
2021/05/10 00:11:17;;;;;;;0.40;0.40;;;;;;;17.18;46.70;95866.34;29394;198;64005;-57
2021/05/10 00:11:48;;;;;;;0.40;0.40;;;;;;;17.18;46.81;95872.63;29395;205;63009;-57
2021/05/10 00:12:21;;;;;;;0.40;0.40;;;;;;;17.18;46.49;95867.12;29396;212;63018;-58
2021/05/10 00:12:52;;;;;;;0.40;0.40;;;;;;;17.18;47.57;95872.63;29396;266;63017;-57
2021/05/10 00:13:24;;;;;;;0.40;0.40;;;;;;;17.18;46.80;95872.63;29394;229;64005;-57
2021/05/10 00:13:55;;;;;;;0.40;0.40;;;;;;;17.18;46.47;95869.87;29396;205;63009;-57
2021/05/10 00:14:39;;;;;;;0.40;0.40;;;;;;;17.22;46.09;95878.19;29396;238;63005;-57
2021/05/10 00:15:11;;;;;;;0.40;0.40;;;;;;;17.23;46.11;95866.84;29396;216;63009;-57
2021/05/10 00:15:43;;;;;;;0.40;0.40;;;;;;;17.23;46.02;95869.59;29396;208;63004;-57
2021/05/10 00:16:14;;;;;;;0.40;0.40;;;;;;;17.23;45.87;95872.34;29396;257;63009;-56
2021/05/10 00:16:45;;;;;;;0.50;0.50;;;;;;;17.23;46.10;95864.13;29396;248;63004;-57
2021/05/10 00:17:16;;;;;;;0.40;0.40;;;;;;;17.23;46.42;95866.84;29395;298;64009;-57
2021/05/10 00:17:47;;;;;;;0.40;0.40;;;;;;;17.22;47.67;95870.75;29396;199;63004;-57
2021/05/10 00:18:19;;;;;;;0.40;0.40;;;;;;;17.21;47.12;95871.09;29396;214;63009;-57
2021/05/10 00:18:50;;;;;;;0.40;0.40;;;;;;;17.20;47.21;95875.78;29396;239;63005;-57
2021/05/10 00:19:21;;;;;;;0.45;0.45;;;;;;;17.24;45.95;95871.19;29396;225;63009;-57
2021/05/10 00:19:56;;;;;;;0.30;0.30;;;;;;;17.26;46.05;95863.41;29396;235;63005;-57
2021/05/10 00:20:28;;;;;;;0.40;0.40;;;;;;;17.27;45.77;95870.47;29396;216;63009;-57
2021/05/10 00:20:59;;;;;;;0.40;0.40;;;;;;;17.29;45.46;95868.16;29396;205;63005;-57
2021/05/10 00:21:31;;;;;;;0.40;0.40;;;;;;;17.29;45.67;95868.16;29395;218;64009;-57
2021/05/10 00:22:03;;;;;;;0.40;0.40;;;;;;;17.30;45.57;95863.47;29395;197;64005;-57
2021/05/10 00:22:34;;;;;;;0.60;0.60;;;;;;;17.32;45.49;95861.97;29396;202;63009;-57
2021/05/10 00:23:06;;;;;;;0.40;0.40;;;;;;;17.38;45.37;95865.97;29396;228;63004;-57
2021/05/10 00:23:37;;;;;;;0.80;0.80;;;;;;;17.47;45.46;95864.97;29396;202;63009;-57
2021/05/10 00:24:09;;;;;;;0.40;0.40;;;;;;;17.52;45.04;95859.19;29396;205;63004;-57
2021/05/10 00:24:40;;;;;;;0.40;0.40;;;;;;;17.56;44.97;95857.31;29396;257;63009;-57
2021/05/10 00:25:12;;;;;;;0.40;0.40;;;;;;;17.59;44.71;95853.84;29396;208;63004;-57
2021/05/10 00:25:45;;;;;;;0.40;0.40;;;;;;;17.57;45.22;95856.16;29395;220;64008;-57
2021/05/10 00:26:16;;;;;;;0.40;0.40;;;;;;;17.56;45.08;95854.56;29396;260;63005;-57
2021/05/10 00:26:48;;;;;;;0.40;0.40;;;;;;;17.53;45.13;95853.34;29396;333;63009;-56
2021/05/10 00:27:19;;;;;;;0.40;0.40;;;;;;;17.54;45.19;95851.41;29396;234;63005;-57
2021/05/10 00:27:50;;;;;;;0.40;0.40;;;;;;;17.52;45.47;95857.25;29396;224;63009;-57
2021/05/10 00:28:22;;;;;;;0.40;0.40;;;;;;;17.50;45.03;95854.06;29396;199;63005;-57
2021/05/10 00:28:53;;;;;;;0.40;0.40;;;;;;;17.50;44.88;95847.78;29396;197;63009;-57
2021/05/10 00:29:25;;;;;;;0.40;0.40;;;;;;;17.50;44.20;95850.53;29396;249;63004;-58
2021/05/10 00:29:56;;;;;;;0.50;0.50;;;;;;;17.51;44.49;95852.13;29396;299;63009;-57
2021/05/10 00:30:28;;;;;;;0.40;0.40;;;;;;;17.50;44.38;95853.28;29396;270;63009;-57
2021/05/10 00:31:00;;;;;;;0.40;0.40;;;;;;;17.50;44.48;95839.56;29395;333;64009;-57
2021/05/10 00:31:31;;;;;;;0.40;0.40;;;;;;;17.50;44.24;95845.03;29396;202;63004;-57
2021/05/10 00:32:03;;;;;;;0.40;0.40;;;;;;;17.53;44.47;95845.13;29396;308;63008;-57
2021/05/10 00:32:34;;;;;;;0.40;0.40;;;;;;;17.54;44.61;95843.97;29396;256;63004;-57
2021/05/10 00:33:06;;;;;;;0.40;0.40;;;;;;;17.54;44.57;95840.44;29396;211;63008;-57
2021/05/10 00:33:37;;;;;;;0.40;0.40;;;;;;;17.56;44.20;95843.59;29396;210;63005;-57
2021/05/10 00:34:08;;;;;;;0.40;0.40;;;;;;;17.55;44.04;95833.78;29396;209;63025;-53
2021/05/10 00:34:39;;;;;;;0.40;0.40;;;;;;;17.55;44.03;95836.53;29396;225;63005;-57
2021/05/10 00:35:12;;;;;;;0.40;0.40;;;;;;;17.55;44.30;95839.28;29396;202;63009;-57
2021/05/10 00:35:44;;;;;;;0.40;0.40;;;;;;;17.55;44.41;95836.53;29396;199;63005;-57
2021/05/10 00:36:15;;;;;;;0.40;0.40;;;;;;;17.53;44.15;95833.34;29395;200;64009;-57
2021/05/10 00:36:46;;;;;;;0.40;0.40;;;;;;;17.50;44.43;95834.06;29396;286;63004;-56
2021/05/10 00:37:18;;;;;;;0.50;0.50;;;;;;;17.47;44.66;95845.78;29396;224;63009;-56
2021/05/10 00:37:50;;;;;;;0.45;0.45;;;;;;;17.45;44.61;95837.09;29396;250;63004;-57
2021/05/10 00:38:22;;;;;;;0.40;0.40;;;;;;;17.44;44.42;95841.81;29396;218;63009;-57
2021/05/10 00:38:53;;;;;;;0.40;0.40;;;;;;;17.42;44.54;95833.94;29395;268;64004;-57
2021/05/10 00:39:25;;;;;;;0.40;0.40;;;;;;;17.40;44.22;95833.50;29396;297;63008;-57
2021/05/10 00:39:56;;;;;;;0.50;0.50;;;;;;;17.40;44.39;95847.22;29396;220;63004;-58
2021/05/10 00:40:31;;;;;;;0.40;0.40;;;;;;;17.45;44.30;95837.09;29396;210;63009;-57
2021/05/10 00:41:02;;;;;;;0.40;0.40;;;;;;;17.41;44.71;95837.84;29396;374;63005;-57
2021/05/10 00:41:34;;;;;;;0.40;0.40;;;;;;;17.40;44.75;95847.22;29396;212;63009;-57
2021/05/10 00:42:06;;;;;;;0.40;0.40;;;;;;;17.40;44.46;95847.22;29396;217;63005;-57
2021/05/10 00:42:38;;;;;;;0.40;0.40;;;;;;;17.41;44.61;95842.53;29396;207;63009;-58
2021/05/10 00:43:10;;;;;;;0.40;0.40;;;;;;;17.39;44.52;95840.13;29396;285;63005;-57
2021/05/10 00:43:41;;;;;;;0.40;0.40;;;;;;;17.37;44.70;95847.13;29395;229;64009;-57
2021/05/10 00:44:12;;;;;;;0.40;0.40;;;;;;;17.35;44.44;95850.25;29396;300;63012;-56
2021/05/10 00:44:43;;;;;;;0.40;0.40;;;;;;;17.33;44.79;95847.06;29396;207;63009;-58
2021/05/10 00:45:15;;;;;;;0.40;0.40;;;;;;;17.34;44.75;95848.66;29396;206;63004;-57
2021/05/10 00:45:47;;;;;;;0.40;0.40;;;;;;;17.33;44.90;95846.28;29396;226;63009;-57
2021/05/10 00:46:18;;;;;;;0.40;0.40;;;;;;;17.32;44.90;95845.50;29396;224;63004;-58
2021/05/10 00:46:54;;;;;;;0.40;0.40;;;;;;;17.30;45.54;95842.34;29396;316;63008;-53
2021/05/10 00:47:25;;;;;;;0.40;0.40;;;;;;;17.28;44.92;95838.34;29396;211;63004;-57
2021/05/10 00:47:57;;;;;;;0.40;0.40;;;;;;;17.27;45.12;95837.56;29396;253;63009;-57
2021/05/10 00:48:29;;;;;;;0.40;0.40;;;;;;;17.26;44.66;95835.19;29396;209;63005;-57
2021/05/10 00:49:00;;;;;;;0.40;0.40;;;;;;;17.25;45.02;95842.62;29395;277;64009;-57
2021/05/10 00:49:31;;;;;;;0.40;0.40;;;;;;;17.25;45.10;95837.13;29396;202;63005;-57
2021/05/10 00:50:07;;;;;;;0.32;0.32;;;;;;;17.23;45.43;95839.44;29396;202;63009;-57
2021/05/10 00:50:38;;;;;;;0.40;0.40;;;;;;;17.19;44.87;95830.34;29396;237;63005;-57
2021/05/10 00:51:09;;;;;;;0.40;0.40;;;;;;;17.18;44.92;95828.75;29395;202;64009;-57
2021/05/10 00:51:40;;;;;;;0.40;0.40;;;;;;;17.17;44.57;95829.91;29396;204;63005;-58
2021/05/10 00:52:11;;;;;;;0.40;0.40;;;;;;;17.14;45.97;95838.84;29396;211;63009;-58
2021/05/10 00:52:42;;;;;;;0.40;0.40;;;;;;;17.11;45.46;95839.56;29396;218;63004;-57
2021/05/10 00:53:13;;;;;;;0.40;0.40;;;;;;;17.07;45.29;95835.97;29396;249;63009;-58
2021/05/10 00:53:44;;;;;;;0.37;0.37;;;;;;;17.06;45.21;95834.38;29396;199;63004;-57
2021/05/10 00:54:16;;;;;;;0.40;0.40;;;;;;;17.04;45.31;95840.22;29396;227;63009;-57
2021/05/10 00:54:50;;;;;;;0.40;0.40;;;;;;;17.03;45.38;95837.84;29396;215;63004;-57
2021/05/10 00:55:23;;;;;;;0.40;0.40;;;;;;;17.02;45.78;95841.72;29395;197;64009;-57
2021/05/10 00:55:56;;;;;;;0.40;0.40;;;;;;;17.00;45.51;95844.81;29396;204;63005;-57
2021/05/10 00:56:27;;;;;;;0.40;0.40;;;;;;;16.99;45.62;95842.44;29397;289;63009;-57
2021/05/10 00:56:58;;;;;;;0.40;0.40;;;;;;;16.99;45.18;95839.69;29397;202;63005;-57
2021/05/10 00:57:33;;;;;;;0.40;0.40;;;;;;;16.99;44.98;95839.69;29397;224;63009;-57
2021/05/10 00:58:05;;;;;;;0.40;0.40;;;;;;;16.97;45.69;95839.28;29397;221;63005;-57
2021/05/10 00:58:37;;;;;;;0.40;0.40;;;;;;;16.96;45.67;95837.69;29397;218;63009;-57
2021/05/10 00:59:08;;;;;;;0.40;0.40;;;;;;;16.92;46.95;95842.31;29397;210;63005;-57
2021/05/10 00:59:40;;;;;;;0.40;0.40;;;;;;;16.89;46.40;95834.81;29397;226;63009;-58
2021/05/10 01:00:15;;;;;;;0.40;0.40;;;;;;;16.87;46.72;95837.91;29397;240;63004;-57
2021/05/10 01:00:46;;;;;;;0.40;0.40;;;;;;;16.86;46.10;95836.31;29396;237;64016;-57
2021/05/10 01:01:17;;;;;;;0.40;0.40;;;;;;;16.86;45.51;95833.56;29397;225;63004;-57
2021/05/10 01:01:50;;;;;;;0.40;0.40;;;;;;;16.85;45.80;95829.25;29397;223;63016;-57
2021/05/10 01:02:21;;;;;;;0.40;0.40;;;;;;;16.84;45.42;95829.59;29397;298;63004;-57
2021/05/10 01:02:53;;;;;;;0.40;0.40;;;;;;;16.84;45.73;95837.81;29397;255;63009;-57
2021/05/10 01:03:25;;;;;;;0.35;0.35;;;;;;;16.83;45.68;95833.50;29397;198;63005;-57
2021/05/10 01:03:56;;;;;;;0.40;0.40;;;;;;;16.81;45.78;95835.78;29397;202;63009;-57
2021/05/10 01:04:27;;;;;;;0.40;0.40;;;;;;;16.80;46.09;95835.00;29397;252;63005;-57
2021/05/10 01:04:58;;;;;;;0.40;0.40;;;;;;;16.78;46.37;95834.56;29397;256;63009;-57
2021/05/10 01:05:30;;;;;;;0.35;0.35;;;;;;;16.77;45.94;95830.25;29397;340;63005;-57
2021/05/10 01:06:01;;;;;;;0.40;0.40;;;;;;;16.77;45.78;95837.66;29396;301;64009;-56
2021/05/10 01:06:33;;;;;;;0.40;0.40;;;;;;;16.74;45.89;95837.22;29397;218;63005;-57
2021/05/10 01:07:04;;;;;;;0.40;0.40;;;;;;;16.74;45.88;95841.91;29397;262;63009;-59
2021/05/10 01:07:37;;;;;;;0.40;0.40;;;;;;;16.78;44.63;95831.03;29397;258;63004;-57
2021/05/10 01:08:08;;;;;;;0.40;0.40;;;;;;;16.78;44.89;95822.81;29397;198;63009;-57
2021/05/10 01:08:40;;;;;;;0.40;0.40;;;;;;;16.74;45.05;95831.75;29397;208;63004;-57
2021/05/10 01:09:11;;;;;;;0.40;0.40;;;;;;;16.77;44.85;95832.19;29396;208;63009;-57
2021/05/10 01:09:42;;;;;;;0.40;0.40;;;;;;;16.80;44.66;95828.72;29396;230;63004;-57
2021/05/10 01:10:16;;;;;;;0.40;0.40;;;;;;;16.85;44.08;95834.72;29396;196;63008;-58
2021/05/10 01:10:47;;;;;;;0.40;0.40;;;;;;;16.91;44.49;95827.03;29396;218;63005;-57
2021/05/10 01:11:18;;;;;;;0.45;0.45;;;;;;;16.93;44.36;95827.47;29395;245;63998;-58
2021/05/10 01:11:50;;;;;;;0.50;0.50;;;;;;;16.94;43.99;95829.03;29397;236;63005;-58
2021/05/10 01:12:21;;;;;;;0.40;0.40;;;;;;;16.97;44.24;95825.59;29396;239;63009;-57
2021/05/10 01:12:53;;;;;;;0.30;0.30;;;;;;;16.97;44.23;95820.12;29396;326;63005;-57
2021/05/10 01:13:24;;;;;;;0.40;0.40;;;;;;;16.98;44.56;95824.44;29396;236;63009;-58
2021/05/10 01:13:56;;;;;;;0.50;0.50;;;;;;;16.96;44.54;95824.00;29395;219;64005;-55
2021/05/10 01:14:27;;;;;;;0.40;0.40;;;;;;;16.95;44.76;95820.47;29396;208;63009;-58
2021/05/10 01:14:59;;;;;;;0.40;0.40;;;;;;;16.95;44.55;95827.91;29396;210;63004;-58
2021/05/10 01:15:30;;;;;;;0.40;0.40;;;;;;;16.95;44.85;95825.16;29396;256;63009;-58
2021/05/10 01:16:02;;;;;;;0.40;0.40;;;;;;;16.94;44.60;95818.09;29396;245;63004;-57
2021/05/10 01:16:33;;;;;;;0.40;0.40;;;;;;;16.95;44.87;95822.41;29396;219;63009;-57
2021/05/10 01:17:05;;;;;;;0.45;0.45;;;;;;;16.96;44.54;95815.78;29396;258;63004;-58
2021/05/10 01:17:37;;;;;;;0.40;0.40;;;;;;;16.96;44.92;95813.03;29396;300;63008;-58
2021/05/10 01:18:10;;;;;;;0.50;0.50;;;;;;;16.99;44.95;95815.03;29395;209;64005;-57
2021/05/10 01:18:41;;;;;;;0.40;0.40;;;;;;;16.98;44.67;95813.47;29396;227;63009;-57
2021/05/10 01:19:14;;;;;;;0.40;0.40;;;;;;;16.97;44.63;95811.88;29395;203;64005;-57
2021/05/10 01:19:45;;;;;;;0.45;0.45;;;;;;;16.95;45.07;95809.50;29396;219;63009;-57
2021/05/10 01:20:17;;;;;;;0.50;0.50;;;;;;;16.93;44.87;95802.81;29396;204;63005;-58
2021/05/10 01:20:51;;;;;;;0.40;0.40;;;;;;;16.94;44.84;95807.13;29396;197;63009;-57
2021/05/10 01:21:23;;;;;;;0.40;0.40;;;;;;;16.92;45.25;95806.69;29396;207;63005;-57
2021/05/10 01:21:58;;;;;;;0.40;0.40;;;;;;;16.90;45.42;95806.25;29396;263;63009;-56
2021/05/10 01:22:40;;;;;;;0.50;0.50;;;;;;;16.87;45.17;95812.44;29396;227;63004;-57
2021/05/10 01:23:12;;;;;;;0.50;0.50;;;;;;;16.86;45.66;95810.88;29396;220;63009;-57
2021/05/10 01:23:44;;;;;;;0.50;0.50;;;;;;;16.86;45.53;95813.59;29396;224;63004;-57
2021/05/10 01:24:17;;;;;;;0.40;0.40;;;;;;;16.83;45.64;95811.56;29395;213;64009;-57
2021/05/10 01:24:49;;;;;;;0.40;0.40;;;;;;;16.84;45.96;95810.44;29396;196;63004;-57
2021/05/10 01:25:26;;;;;;;0.40;0.40;;;;;;;16.81;45.96;95809.19;29396;211;63009;-58
2021/05/10 01:25:57;;;;;;;0.40;0.40;;;;;;;16.80;46.14;95807.59;29396;234;63005;-57
2021/05/10 01:26:28;;;;;;;0.40;0.40;;;;;;;16.81;45.91;95819.34;29396;203;63009;-57
2021/05/10 01:27:04;;;;;;;0.40;0.40;;;;;;;16.83;46.08;95814.31;29396;207;63005;-57
2021/05/10 01:27:35;;;;;;;0.50;0.50;;;;;;;16.83;46.08;95811.56;29396;216;63009;-57
2021/05/10 01:28:07;;;;;;;0.50;0.50;;;;;;;16.80;46.40;95806.81;29396;276;63005;-57
2021/05/10 01:28:38;;;;;;;0.50;0.50;;;;;;;16.77;46.18;95818.50;29396;218;63009;-57
2021/05/10 01:29:10;;;;;;;0.50;0.50;;;;;;;16.79;46.53;95816.19;29395;203;64005;-57
2021/05/10 01:29:41;;;;;;;0.50;0.50;;;;;;;16.74;46.09;95812.56;29396;213;63009;-57
2021/05/10 01:30:31;;;;;;;0.50;0.50;;;;;;;16.69;46.15;95812.84;29396;233;63004;-53
2021/05/10 01:31:02;;;;;;;0.50;0.50;;;;;;;16.67;46.88;95809.66;29396;316;63009;-57
2021/05/10 01:31:33;;;;;;;0.40;0.40;;;;;;;16.66;46.66;95815.50;29395;204;64004;-57
2021/05/10 01:32:05;;;;;;;0.40;0.40;;;;;;;16.63;46.91;95810.75;29396;256;63008;-56
2021/05/10 01:32:36;;;;;;;0.50;0.50;;;;;;;16.60;46.58;95820.47;29396;267;63004;-58
2021/05/10 01:33:09;;;;;;;0.40;0.40;;;;;;;16.57;46.84;95818.44;29396;203;63009;-58
2021/05/10 01:33:40;;;;;;;0.40;0.40;;;;;;;16.55;46.89;95823.47;29396;263;63005;-56
2021/05/10 01:34:11;;;;;;;0.40;0.40;;;;;;;16.51;47.14;95822.59;29396;202;63009;-57
2021/05/10 01:34:43;;;;;;;0.40;0.40;;;;;;;16.50;47.20;95826.47;29396;244;63005;-57
2021/05/10 01:35:22;;;;;;;0.40;0.40;;;;;;;16.48;47.38;95828.00;29396;239;63009;-57
2021/05/10 01:35:53;;;;;;;0.40;0.40;;;;;;;16.49;47.14;95824.91;29396;231;63005;-55
2021/05/10 01:36:25;;;;;;;0.50;0.50;;;;;;;16.46;47.28;95820.12;29395;219;64009;-57
2021/05/10 01:36:56;;;;;;;0.40;0.40;;;;;;;16.45;47.38;95821.28;29396;218;63004;-58
2021/05/10 01:37:27;;;;;;;0.50;0.50;;;;;;;16.43;47.23;95820.84;29396;228;63009;-57
2021/05/10 01:37:59;;;;;;;0.40;0.40;;;;;;;16.41;47.22;95820.41;29396;218;63004;-57
2021/05/10 01:38:30;;;;;;;0.40;0.40;;;;;;;16.40;47.41;95819.59;29396;286;63009;-56
2021/05/10 01:39:01;;;;;;;0.50;0.50;;;;;;;16.41;47.45;95814.94;29398;251;63009;-57
2021/05/10 01:39:32;;;;;;;0.50;0.50;;;;;;;16.43;47.45;95815.38;29396;218;63008;-58
2021/05/10 01:40:08;;;;;;;0.40;0.40;;;;;;;16.40;47.29;95811.38;29395;265;64004;-58
2021/05/10 01:40:40;;;;;;;0.40;0.40;;;;;;;16.39;47.50;95818.00;29396;270;63009;-58
2021/05/10 01:41:15;;;;;;;0.50;0.50;;;;;;;16.38;47.39;95815.63;29396;198;63005;-57
2021/05/10 01:41:46;;;;;;;0.50;0.50;;;;;;;16.38;47.53;95818.38;29395;197;64009;-57
2021/05/10 01:42:17;;;;;;;0.50;0.50;;;;;;;16.36;47.40;95820.66;29396;247;63005;-57
2021/05/10 01:42:49;;;;;;;0.40;0.40;;;;;;;16.34;47.50;95817.50;29396;243;63009;-57
2021/05/10 01:43:20;;;;;;;0.40;0.40;;;;;;;16.35;47.33;95813.59;29396;201;63005;-56
2021/05/10 01:43:52;;;;;;;0.50;0.50;;;;;;;16.36;47.27;95809.72;29396;244;63009;-57
2021/05/10 01:44:23;;;;;;;0.50;0.50;;;;;;;16.33;47.23;95813.16;29396;215;63004;-57
2021/05/10 01:44:54;;;;;;;0.50;0.50;;;;;;;16.33;47.47;95813.16;29396;202;63009;-58
2021/05/10 01:45:27;;;;;;;0.50;0.50;;;;;;;16.30;47.40;95816.59;29395;212;64004;-53
2021/05/10 01:45:58;;;;;;;0.40;0.40;;;;;;;16.28;47.20;95819.72;29396;212;63009;-57
2021/05/10 01:46:29;;;;;;;0.50;0.50;;;;;;;16.27;47.40;95809.13;29396;240;63004;-57
2021/05/10 01:47:00;;;;;;;0.50;0.50;;;;;;;16.27;47.53;95809.13;29396;210;63008;-56
2021/05/10 01:47:32;;;;;;;0.40;0.40;;;;;;;16.28;47.58;95808.00;29396;216;63012;-57
2021/05/10 01:48:08;;;;;;;0.40;0.40;;;;;;;16.26;47.79;95810.28;29396;214;63009;-57
2021/05/10 01:48:39;;;;;;;0.40;0.40;;;;;;;16.24;47.23;95807.09;29396;216;63005;-57
2021/05/10 01:49:10;;;;;;;0.50;0.50;;;;;;;16.21;47.48;95810.56;29395;212;64009;-58
2021/05/10 01:49:48;;;;;;;0.40;0.40;;;;;;;16.21;47.60;95810.56;29396;210;63005;-57
2021/05/10 01:50:21;;;;;;;0.40;0.40;;;;;;;16.20;47.48;95807.03;29396;213;63009;-57
2021/05/10 01:50:52;;;;;;;0.50;0.50;;;;;;;16.19;47.46;95810.09;29395;284;64005;-57
2021/05/10 01:51:25;;;;;;;0.50;0.50;;;;;;;16.21;47.43;95807.81;29396;250;63009;-57
2021/05/10 01:52:00;;;;;;;0.50;0.50;;;;;;;16.18;47.26;95805.78;29396;214;63004;-58
2021/05/10 01:52:32;;;;;;;0.40;0.40;;;;;;;16.19;47.75;95804.62;29396;206;63009;-57
2021/05/10 01:53:06;;;;;;;0.40;0.40;;;;;;;16.19;47.31;95805.44;29395;283;64004;-58
2021/05/10 01:53:37;;;;;;;0.50;0.50;;;;;;;16.19;47.57;95808.16;29396;220;63009;-57
2021/05/10 01:54:08;;;;;;;0.50;0.50;;;;;;;16.21;47.15;95807.81;29396;263;63004;-57
2021/05/10 01:54:39;;;;;;;0.50;0.50;;;;;;;16.25;47.11;95803.22;29396;211;63008;-59
2021/05/10 01:55:12;;;;;;;0.50;0.50;;;;;;;16.27;46.66;95806.41;29396;224;63005;-57
2021/05/10 01:55:44;;;;;;;0.50;0.50;;;;;;;16.32;46.50;95806.09;29396;202;63009;-58
2021/05/10 01:56:15;;;;;;;0.47;0.47;;;;;;;16.33;46.35;95799.47;29395;242;64005;-57
2021/05/10 01:56:47;;;;;;;0.40;0.40;;;;;;;16.31;46.41;95804.50;29396;238;63009;-58
2021/05/10 01:57:19;;;;;;;0.40;0.40;;;;;;;16.28;46.55;95805.25;29396;213;63005;-57
2021/05/10 01:57:57;;;;;;;0.47;0.47;;;;;;;16.26;46.75;95810.28;29396;239;63009;-58
2021/05/10 01:58:29;;;;;;;0.40;0.40;;;;;;;16.23;46.63;95808.25;29397;213;63005;-57
2021/05/10 01:59:00;;;;;;;0.40;0.40;;;;;;;16.24;47.01;95807.09;29395;224;64009;-58
2021/05/10 01:59:31;;;;;;;0.50;0.50;;;;;;;16.22;46.84;95803.94;29397;228;63004;-57
2021/05/10 02:00:10;;;;;;;0.40;0.40;;;;;;;16.21;47.07;95808.59;29397;221;63009;-57
2021/05/10 02:00:47;;;;;;;0.40;0.40;;;;;;;16.22;47.02;95809.41;29397;210;63004;-57
2021/05/10 02:01:19;;;;;;;0.40;0.40;;;;;;;16.20;47.02;95808.97;29396;222;63009;-58
2021/05/10 02:01:50;;;;;;;0.40;0.40;;;;;;;16.21;46.95;95803.13;29397;373;63004;-57
2021/05/10 02:02:25;;;;;;;0.40;0.40;;;;;;;16.24;46.51;95801.63;29397;199;63005;-58
2021/05/10 02:03:04;;;;;;;0.40;0.40;;;;;;;16.23;46.88;95800.84;29396;222;63005;-57
2021/05/10 02:03:35;;;;;;;0.40;0.40;;;;;;;16.28;46.34;95799.78;29395;245;63009;-57
2021/05/10 02:04:06;;;;;;;0.50;0.50;;;;;;;16.30;46.50;95800.97;29394;202;64005;-57
2021/05/10 02:05:25;;;;;;;0.50;0.50;;;;;;;16.30;46.47;95794.72;29395;212;63009;-57
2021/05/10 02:05:56;;;;;;;0.40;0.40;;;;;;;16.29;46.82;95798.59;29395;202;63009;-57
2021/05/10 02:06:27;;;;;;;0.40;0.40;;;;;;;16.27;46.78;95789.97;29395;218;63004;-58
2021/05/10 02:07:02;;;;;;;0.50;0.50;;;;;;;16.25;46.49;95795.00;29395;237;63009;-57
2021/05/10 02:07:37;;;;;;;0.40;0.40;;;;;;;16.23;46.69;95789.88;29395;255;63004;-57
2021/05/10 02:08:10;;;;;;;0.40;0.40;;;;;;;16.22;46.92;95799.25;29395;226;63009;-58
2021/05/10 02:08:44;;;;;;;0.40;0.40;;;;;;;16.21;46.91;95794.13;29393;202;64017;-58
2021/05/10 02:09:15;;;;;;;0.50;0.50;;;;;;;16.20;46.80;95796.06;29395;242;63008;-54
2021/05/10 02:09:46;;;;;;;0.40;0.40;;;;;;;16.20;46.55;95793.34;29395;254;63004;-57
2021/05/10 02:10:23;;;;;;;0.40;0.40;;;;;;;16.20;46.70;95796.06;29395;246;63009;-54
2021/05/10 02:10:54;;;;;;;0.40;0.40;;;;;;;16.21;46.71;95796.88;29395;271;63005;-58
2021/05/10 02:11:25;;;;;;;0.40;0.40;;;;;;;16.19;46.28;95789.00;29395;310;63009;-57
2021/05/10 02:11:57;;;;;;;0.40;0.40;;;;;;;16.20;46.58;95798.00;29395;208;63005;-57
2021/05/10 02:12:28;;;;;;;0.40;0.40;;;;;;;16.19;46.55;95796.44;29395;226;63009;-57
2021/05/10 02:13:05;;;;;;;0.40;0.40;;;;;;;16.18;46.58;95797.56;29393;240;64005;-57
2021/05/10 02:13:36;;;;;;;0.40;0.40;;;;;;;16.17;46.64;95798.72;29395;215;63009;-58
2021/05/10 02:14:07;;;;;;;0.40;0.40;;;;;;;16.16;46.44;95797.12;29395;271;63004;-57
2021/05/10 02:14:40;;;;;;;0.40;0.40;;;;;;;16.16;46.64;95797.12;29395;196;63009;-57
2021/05/10 02:15:13;;;;;;;0.40;0.40;;;;;;;16.15;46.39;95793.59;29395;238;63004;-57
2021/05/10 02:15:50;;;;;;;0.43;0.43;;;;;;;16.17;46.65;95796.00;29395;197;63009;-58
2021/05/10 02:16:24;;;;;;;0.40;0.40;;;;;;;16.17;46.26;95796.78;29395;217;63004;-58
2021/05/10 02:16:55;;;;;;;0.47;0.47;;;;;;;16.18;46.10;95792.91;29395;250;63008;-57
2021/05/10 02:17:27;;;;;;;0.40;0.40;;;;;;;16.18;46.07;95792.91;29395;203;63005;-58
2021/05/10 02:18:00;;;;;;;0.40;0.40;;;;;;;16.18;46.07;95790.16;29393;240;64009;-58
2021/05/10 02:18:35;;;;;;;0.50;0.50;;;;;;;16.19;46.04;95793.69;29395;241;63005;-57
2021/05/10 02:19:06;;;;;;;0.47;0.47;;;;;;;16.20;46.02;95798.00;29393;209;64009;-57
2021/05/10 02:19:37;;;;;;;0.40;0.40;;;;;;;16.21;46.03;95796.88;29395;252;63005;-57
2021/05/10 02:20:09;;;;;;;0.50;0.50;;;;;;;16.22;46.24;95787.50;29395;228;63014;-57
2021/05/10 02:20:41;;;;;;;0.43;0.43;;;;;;;16.23;45.83;95789.09;29395;232;63005;-58
2021/05/10 02:21:12;;;;;;;0.40;0.40;;;;;;;16.26;45.91;95785.66;29395;236;63009;-57
2021/05/10 02:21:43;;;;;;;0.40;0.40;;;;;;;16.27;45.95;95789.97;29395;209;63007;-58
2021/05/10 02:22:15;;;;;;;0.40;0.40;;;;;;;16.29;45.60;95782.19;29395;246;63009;-58
2021/05/10 02:23:12;;;;;;;0.50;0.50;;;;;;;16.31;45.45;95785.34;29395;222;63004;-58
2021/05/10 02:23:44;;;;;;;0.40;0.40;;;;;;;16.30;45.66;95789.25;29395;214;63009;-57
2021/05/10 02:24:15;;;;;;;0.40;0.40;;;;;;;16.29;45.71;95782.97;29393;215;64004;-57
2021/05/10 02:24:46;;;;;;;0.40;0.40;;;;;;;16.30;45.60;95778.28;29395;277;63008;-57
2021/05/10 02:25:20;;;;;;;0.45;0.45;;;;;;;16.31;45.44;95785.34;29395;204;63005;-57
2021/05/10 02:25:55;;;;;;;0.40;0.40;;;;;;;16.30;45.51;95783.75;29395;207;63009;-58
2021/05/10 02:26:26;;;;;;;0.40;0.40;;;;;;;16.31;45.59;95790.81;29395;202;63005;-57
2021/05/10 02:26:57;;;;;;;0.40;0.40;;;;;;;16.31;45.58;95788.09;29394;221;63999;-58
2021/05/10 02:27:28;;;;;;;0.40;0.40;;;;;;;16.31;45.41;95791.63;29393;245;64005;-57
2021/05/10 02:28:01;;;;;;;0.40;0.40;;;;;;;16.35;44.93;95791.72;29393;227;64009;-58
2021/05/10 02:28:33;;;;;;;0.40;0.40;;;;;;;16.36;45.17;95793.28;29395;232;63005;-58
2021/05/10 02:29:04;;;;;;;0.40;0.40;;;;;;;16.39;44.86;95787.09;29393;235;64009;-58
2021/05/10 02:29:36;;;;;;;0.40;0.40;;;;;;;16.39;44.92;95789.84;29395;232;63004;-57
2021/05/10 02:30:09;;;;;;;0.40;0.40;;;;;;;16.37;44.96;95794.88;29395;258;63009;-57
2021/05/10 02:30:42;;;;;;;0.40;0.40;;;;;;;16.36;45.31;95796.03;29395;218;63004;-57
2021/05/10 02:31:13;;;;;;;0.40;0.40;;;;;;;16.35;45.32;95799.91;29395;196;63009;-57
2021/05/10 02:31:47;;;;;;;0.50;0.50;;;;;;;16.34;45.12;95796.38;29393;267;64004;-57
2021/05/10 02:32:19;;;;;;;0.40;0.40;;;;;;;16.32;45.29;95793.22;29395;221;63025;-58
2021/05/10 02:32:52;;;;;;;0.40;0.40;;;;;;;16.31;45.21;95794.34;29395;227;63005;-57
2021/05/10 02:33:32;;;;;;;0.50;0.50;;;;;;;16.29;45.61;95793.91;29395;250;63009;-57
2021/05/10 02:34:03;;;;;;;0.40;0.40;;;;;;;16.29;45.87;95793.13;29393;224;64005;-57
2021/05/10 02:34:34;;;;;;;0.40;0.40;;;;;;;16.28;45.47;95797.84;29393;199;64009;-57